Time;durP1;ratioP1;P1;durP2;ratioP2;P2;SDS_P1;SDS_P2;PMS_P1;PMS_P2;Temp;Humidity;BMP_temperature;BMP_pressure;BME280_temperature;BME280_humidity;BME280_pressure;Samples;Min_cycle;Max_cycle;Signal;HPM_P1;HPM_P2
2021/04/14 00:01:00;;;;;;;5.97;4.50;;;;;;;2.68;79.68;99786.34;4187863;34;33897;-82
2021/04/14 00:03:34;;;;;;;5.70;4.62;;;;;;;2.72;79.85;99786.91;4176130;34;36092;-93
2021/04/14 00:06:10;;;;;;;8.13;4.28;;;;;;;2.96;78.65;99789.22;4188428;34;33400;-82
2021/04/14 00:08:43;;;;;;;6.03;4.55;;;;;;;3.01;78.29;99787.00;4176360;34;34282;-93
2021/04/14 00:11:18;;;;;;;5.62;4.40;;;;;;;2.87;79.00;99782.88;4166470;34;33923;-93
2021/04/14 00:13:51;;;;;;;5.12;4.32;;;;;;;3.07;78.15;99780.25;4166511;34;33861;-82
2021/04/14 00:16:25;;;;;;;5.20;3.67;;;;;;;2.82;79.13;99783.28;4187571;34;34248;-92
2021/04/14 00:18:58;;;;;;;4.75;3.47;;;;;;;2.87;79.33;99780.22;4188765;34;33982;-82
2021/04/14 00:21:30;;;;;;;4.60;3.80;;;;;;;2.77;79.52;99776.66;4172770;34;35497;-82
2021/04/14 00:24:05;;;;;;;4.62;3.58;;;;;;;2.86;79.06;99773.19;4167404;34;33644;-93
2021/04/14 00:26:49;;;;;;;3.90;3.33;;;;;;;2.89;79.23;99772.91;4150882;34;33538;-82
2021/04/14 00:29:22;;;;;;;3.72;3.28;;;;;;;2.73;79.61;99783.28;4157837;34;34027;-82
2021/04/14 00:31:53;;;;;;;4.05;3.22;;;;;;;2.69;79.72;99772.00;4177290;34;33825;-93
2021/04/14 00:34:26;;;;;;;4.60;3.58;;;;;;;2.72;80.04;99776.25;4176864;34;35294;-88
2021/04/14 00:36:59;;;;;;;5.80;4.05;;;;;;;2.70;80.02;99778.22;4176921;34;32888;-82
2021/04/14 00:39:32;;;;;;;4.75;3.72;;;;;;;2.80;79.45;99784.44;4166229;34;33588;-90
2021/04/14 00:42:05;;;;;;;4.40;3.70;;;;;;;2.76;79.40;99786.50;4164872;34;34700;-82
2021/04/14 00:44:37;;;;;;;5.37;4.07;;;;;;;2.85;79.40;99795.53;4186201;34;35950;-82
2021/04/14 00:47:09;;;;;;;5.15;3.78;;;;;;;2.81;79.33;99786.97;4187993;34;34615;-90
2021/04/14 00:49:47;;;;;;;4.37;3.60;;;;;;;2.81;79.65;99797.63;4173131;34;34668;-92
2021/04/14 00:52:22;;;;;;;3.97;3.17;;;;;;;2.95;79.32;99798.19;4165865;34;34796;-82
2021/04/14 00:54:55;;;;;;;4.00;2.90;;;;;;;2.87;79.55;99793.56;4176538;34;33817;-93
2021/04/14 00:57:27;;;;;;;4.93;3.33;;;;;;;2.96;79.40;99792.75;4187775;34;33919;-82
2021/04/14 00:59:59;;;;;;;5.78;3.65;;;;;;;2.72;80.11;99786.91;4187257;34;33496;-92
2021/04/14 01:02:31;;;;;;;4.05;3.47;;;;;;;2.65;80.52;99791.97;4165161;34;34381;-92
2021/04/14 01:05:07;;;;;;;5.43;4.12;;;;;;;2.57;80.81;99795.28;4186374;34;34251;-93
2021/04/14 01:07:39;;;;;;;5.05;4.30;;;;;;;2.72;80.54;99785.09;4175875;34;33966;-92
2021/04/14 01:10:15;;;;;;;5.55;4.55;;;;;;;2.45;81.52;99788.34;4187513;34;34193;-82
2021/04/14 01:12:47;;;;;;;5.05;4.37;;;;;;;2.67;80.88;99789.16;4177251;34;34720;-83
2021/04/14 01:15:31;;;;;;;6.30;5.00;;;;;;;2.80;80.32;99787.09;4165836;34;33608;-93
2021/04/14 01:18:05;;;;;;;7.20;5.70;;;;;;;2.72;80.55;99790.41;4187508;34;32969;-93
2021/04/14 01:20:37;;;;;;;7.47;5.22;;;;;;;2.67;80.90;99789.16;4177071;34;33701;-82
2021/04/14 01:23:13;;;;;;;6.70;5.70;;;;;;;2.63;81.13;99783.22;4175511;34;35681;-92
2021/04/14 01:25:48;;;;;;;8.25;6.60;;;;;;;2.61;81.34;99788.72;4187283;34;33764;-82
2021/04/14 01:28:42;;;;;;;7.47;6.00;;;;;;;2.66;81.31;99788.28;4175938;34;33755;-93
2021/04/14 01:31:18;;;;;;;10.15;6.75;;;;;;;2.53;81.94;99780.53;4178116;34;34642;-82
2021/04/14 01:33:50;;;;;;;9.25;6.65;;;;;;;2.55;81.66;99780.41;4165045;34;34339;-92
2021/04/14 01:36:24;;;;;;;8.13;6.50;;;;;;;2.73;80.91;99778.78;4176529;34;34366;-91
2021/04/14 01:38:56;;;;;;;7.65;6.53;;;;;;;2.72;81.09;99770.91;4177181;34;33721;-90
2021/04/14 01:41:29;;;;;;;8.65;7.25;;;;;;;2.46;81.90;99771.38;4176938;34;33692;-82
2021/04/14 01:44:02;;;;;;;8.95;7.12;;;;;;;2.84;80.65;99785.81;4175787;34;33816;-90
2021/04/14 01:46:35;;;;;;;9.27;7.20;;;;;;;2.98;80.32;99782.78;4188109;34;34768;-82
2021/04/14 01:49:08;;;;;;;10.95;8.13;;;;;;;2.88;80.42;99797.09;4187660;34;34273;-91
2021/04/14 01:51:51;;;;;;;10.57;7.40;;;;;;;2.72;81.64;99786.91;4183760;34;34580;-91
2021/04/14 01:54:26;;;;;;;10.30;7.60;;;;;;;2.97;80.09;99790.91;4164953;34;34437;-82
2021/04/14 01:56:59;;;;;;;12.07;9.38;;;;;;;2.91;80.80;99776.28;4187423;34;33576;-91
2021/04/14 01:59:36;;;;;;;9.57;7.80;;;;;;;3.07;80.44;99782.91;4177814;34;32428;-91
2021/04/14 02:02:09;;;;;;;10.02;7.95;;;;;;;2.97;80.55;99781.06;4176164;34;34795;-82
2021/04/14 02:04:42;;;;;;;11.93;9.05;;;;;;;2.95;80.51;99777.72;4187200;34;35741;-91
2021/04/14 02:07:17;;;;;;;10.95;8.05;;;;;;;3.07;80.53;99772.22;4186667;34;33753;-96
2021/04/14 02:09:55;;;;;;;10.65;8.27;;;;;;;2.97;80.86;99767.72;4192991;34;33807;-82
2021/04/14 02:12:31;;;;;;;10.77;8.05;;;;;;;3.09;80.03;99776.47;4181278;34;34333;-89
2021/04/14 02:15:09;;;;;;;10.45;8.20;;;;;;;3.04;80.00;99760.03;4182525;34;33427;-96
2021/04/14 02:17:41;;;;;;;11.20;7.82;;;;;;;2.63;81.54;99768.09;4180103;34;33694;-87
2021/04/14 02:20:14;;;;;;;13.48;9.52;;;;;;;2.68;81.92;99764.13;4190609;34;31683;-90
2021/04/14 02:22:47;;;;;;;11.85;8.98;;;;;;;2.95;80.84;99769.69;4170622;34;34378;-83
2021/04/14 02:25:21;;;;;;;10.75;8.57;;;;;;;3.02;80.46;99761.12;4192521;34;34708;-82
2021/04/14 02:27:53;;;;;;;11.12;9.05;;;;;;;3.36;79.51;99761.59;4179115;34;33662;-83
2021/04/14 02:30:28;;;;;;;13.05;9.73;;;;;;;3.44;79.32;99763.53;4198563;28;33297;-82
2021/04/14 02:33:10;;;;;;;12.48;9.40;;;;;;;3.19;79.91;99765.81;4221431;33;33646;-82
2021/04/14 02:35:42;;;;;;;10.65;8.45;;;;;;;3.13;80.20;99759.19;4208202;34;34676;-82
2021/04/14 02:38:14;;;;;;;13.55;9.23;;;;;;;3.11;80.63;99762.97;4218980;34;34108;-92
2021/04/14 02:40:47;;;;;;;14.30;10.35;;;;;;;3.41;79.24;99761.16;4195107;34;35555;-92
2021/04/14 02:43:21;;;;;;;13.68;10.68;;;;;;;2.99;80.82;99760.44;4185481;34;34791;-92
2021/04/14 02:45:54;;;;;;;15.70;11.43;;;;;;;3.08;81.25;99772.09;4197648;34;35073;-91
2021/04/14 02:48:36;;;;;;;16.02;12.02;;;;;;;3.07;81.02;99764.22;4207483;34;33718;-82
2021/04/14 02:51:09;;;;;;;13.70;11.15;;;;;;;3.36;79.94;99765.09;4194671;34;34950;-95
2021/04/14 02:53:41;;;;;;;14.63;11.18;;;;;;;3.64;78.78;99764.41;4197808;34;33301;-96
2021/04/14 02:56:13;;;;;;;17.25;12.48;;;;;;;3.26;80.36;99766.91;4183810;34;35803;-93
2021/04/14 02:58:47;;;;;;;15.15;11.27;;;;;;;3.37;79.96;99755.25;4219282;34;33606;-92
2021/04/14 03:01:25;;;;;;;16.48;11.80;;;;;;;3.54;79.13;99767.06;4196402;34;34159;-88
2021/04/14 03:03:57;;;;;;;15.50;11.35;;;;;;;3.32;79.49;99766.38;4206167;34;34600;-91
2021/04/14 03:06:30;;;;;;;14.52;11.10;;;;;;;3.44;80.26;99763.53;4205581;34;33500;-92
2021/04/14 03:09:03;;;;;;;15.82;11.68;;;;;;;3.83;77.87;99760.84;4205150;34;35527;-91
2021/04/14 03:11:36;;;;;;;15.00;11.48;;;;;;;3.57;79.27;99766.78;4194775;34;34310;-91
2021/04/14 03:14:09;;;;;;;15.63;11.90;;;;;;;3.67;78.97;99764.13;4205565;34;33600;-82
2021/04/14 03:16:41;;;;;;;15.48;11.52;;;;;;;3.99;77.44;99762.91;4205982;34;34792;-82
2021/04/14 03:19:13;;;;;;;15.50;12.27;;;;;;;3.67;78.63;99767.63;4193973;34;34197;-82
2021/04/14 03:21:45;;;;;;;17.52;12.68;;;;;;;4.05;77.57;99757.00;4194369;34;34795;-82
2021/04/14 03:24:18;;;;;;;16.42;12.25;;;;;;;3.66;79.07;99765.91;4218905;34;34249;-91
2021/04/14 03:26:50;;;;;;;17.25;13.02;;;;;;;3.48;79.83;99773.81;4188215;34;34822;-92
2021/04/14 03:29:22;;;;;;;17.00;13.07;;;;;;;3.93;78.48;99769.69;4181342;34;33850;-93
2021/04/14 03:32:00;;;;;;;19.45;13.60;;;;;;;3.55;79.32;99776.78;4195463;34;33296;-91
2021/04/14 03:34:32;;;;;;;17.70;13.85;;;;;;;3.39;80.26;99772.00;4183315;34;35229;-92
2021/04/14 03:37:05;;;;;;;15.93;12.57;;;;;;;4.11;77.69;99771.63;4197445;34;33991;-82
2021/04/14 03:39:37;;;;;;;15.40;11.82;;;;;;;4.04;78.02;99768.66;4195743;34;36063;-82
2021/04/14 03:42:09;;;;;;;17.02;12.85;;;;;;;4.29;76.69;99767.19;4206941;34;34127;-92
2021/04/14 03:44:42;;;;;;;14.70;12.07;;;;;;;4.31;76.32;99769.72;4206615;34;34402;-92
2021/04/14 03:47:19;;;;;;;15.88;12.10;;;;;;;4.29;76.74;99767.19;4196404;34;35566;-82
2021/04/14 03:49:54;;;;;;;15.93;12.30;;;;;;;4.07;77.44;99769.25;4206792;34;33303;-96
2021/04/14 03:52:28;;;;;;;15.73;12.20;;;;;;;3.89;77.84;99773.63;4184857;34;33983;-82
2021/04/14 03:55:00;;;;;;;18.05;13.52;;;;;;;3.98;77.98;99778.13;4196461;34;35476;-93
2021/04/14 03:57:52;;;;;;;15.73;12.55;;;;;;;3.99;77.73;99781.63;4209331;34;33715;-82
2021/04/14 04:00:25;;;;;;;15.45;12.00;;;;;;;4.20;77.07;99773.41;4207949;34;33714;-93
2021/04/14 04:03:25;;;;;;;17.12;12.85;;;;;;;4.21;77.14;99781.31;4210948;34;34678;-82
2021/04/14 04:06:15;;;;;;;17.23;12.85;;;;;;;3.98;77.75;99782.63;4183995;34;34399;-92
2021/04/14 04:08:57;;;;;;;18.30;12.48;;;;;;;4.07;77.64;99785.28;4207196;34;33723;-90
2021/04/14 04:11:37;;;;;;;16.50;13.55;;;;;;;3.79;78.79;99789.69;4195905;34;34984;-82
2021/04/14 04:14:09;;;;;;;16.80;13.15;;;;;;;4.11;78.13;99785.84;4207549;34;34106;-82
2021/04/14 04:16:46;;;;;;;17.67;14.25;;;;;;;4.26;77.04;99786.22;4206534;34;33373;-96
2021/04/14 04:19:18;;;;;;;17.02;13.80;;;;;;;3.80;79.02;99787.84;4196011;34;35085;-92
2021/04/14 04:21:50;;;;;;;18.50;14.10;;;;;;;4.62;75.97;99794.38;4207433;34;34021;-94
2021/04/14 04:24:23;;;;;;;17.98;13.38;;;;;;;4.44;76.94;99791.66;4207131;34;33456;-82
2021/04/14 04:26:55;;;;;;;19.55;13.07;;;;;;;4.46;76.42;99800.38;4195327;34;32479;-93
2021/04/14 04:29:27;;;;;;;16.95;13.25;;;;;;;4.44;76.90;99798.84;4185096;34;34172;-83
2021/04/14 04:31:59;;;;;;;18.60;12.90;;;;;;;4.40;76.07;99799.12;4217527;34;34512;-92
2021/04/14 04:34:32;;;;;;;15.55;12.45;;;;;;;4.36;76.24;99807.59;4194607;34;34216;-82
2021/04/14 04:37:04;;;;;;;17.40;12.55;;;;;;;4.60;75.81;99809.75;4194465;34;35345;-93
2021/04/14 04:39:36;;;;;;;17.27;11.75;;;;;;;4.65;75.84;99815.50;4193659;34;33934;-93
2021/04/14 04:42:09;;;;;;;15.50;12.60;;;;;;;4.68;75.55;99815.22;4195199;34;34630;-82
2021/04/14 04:44:41;;;;;;;14.45;12.65;;;;;;;4.68;75.54;99825.91;4202296;34;33159;-93
2021/04/14 04:47:13;;;;;;;14.10;11.38;;;;;;;4.62;75.71;99826.50;4187473;34;34675;-93
2021/04/14 04:49:46;;;;;;;14.05;11.00;;;;;;;4.69;75.58;99819.59;4206465;34;34790;-82
2021/04/14 04:52:19;;;;;;;15.45;12.13;;;;;;;4.68;75.05;99831.28;4206614;34;34785;-83
2021/04/14 04:54:52;;;;;;;13.05;10.73;;;;;;;4.76;75.07;99834.06;4180884;34;34885;-82
2021/04/14 04:57:24;;;;;;;16.75;11.60;;;;;;;4.60;75.70;99839.22;4205702;34;33746;-83
2021/04/14 04:59:57;;;;;;;14.52;11.68;;;;;;;4.08;77.66;99847.66;4194223;34;34763;-91
2021/04/14 05:02:34;;;;;;;13.52;10.48;;;;;;;4.40;76.43;99849.97;4192651;34;33855;-93
2021/04/14 05:05:12;;;;;;;12.95;10.02;;;;;;;4.19;77.11;99847.50;4192849;34;33023;-92
2021/04/14 05:07:44;;;;;;;13.07;9.10;;;;;;;4.33;76.69;99854.22;4199496;34;34432;-82
2021/04/14 05:10:31;;;;;;;15.30;10.27;;;;;;;4.05;77.03;99855.97;4182391;34;33558;-82
2021/04/14 05:13:04;;;;;;;11.82;9.73;;;;;;;4.18;77.47;99855.66;4199360;34;34207;-82
2021/04/14 05:15:50;;;;;;;12.98;9.57;;;;;;;4.19;77.57;99862.69;4215591;34;35205;-85
2021/04/14 05:18:21;;;;;;;10.48;8.65;;;;;;;4.44;77.36;99865.75;4193559;34;33588;-82
2021/04/14 05:20:54;;;;;;;11.57;8.40;;;;;;;4.32;76.86;99863.22;4182933;34;35539;-83
2021/04/14 05:23:26;;;;;;;13.18;8.70;;;;;;;4.31;77.01;99861.56;4232498;33;33786;-82
2021/04/14 05:25:58;;;;;;;10.32;8.43;;;;;;;4.48;76.28;99851.94;4221759;33;33190;-93
2021/04/14 05:28:31;;;;;;;10.40;8.75;;;;;;;4.29;77.09;99854.66;4193848;34;34782;-95
2021/04/14 05:31:04;;;;;;;10.70;7.97;;;;;;;4.33;76.79;99856.06;4181710;34;34072;-85
2021/04/14 05:33:36;;;;;;;8.65;7.60;;;;;;;4.18;77.21;99853.00;4204928;34;34511;-93
2021/04/14 05:36:10;;;;;;;9.13;7.57;;;;;;;4.24;76.64;99849.75;4184464;34;34700;-82
2021/04/14 05:38:42;;;;;;;11.02;7.18;;;;;;;4.30;77.00;99854.50;4195689;34;34850;-82
2021/04/14 05:41:15;;;;;;;8.32;6.80;;;;;;;4.54;75.99;99850.50;4205522;34;34660;-82
2021/04/14 05:43:47;;;;;;;8.93;7.72;;;;;;;4.46;75.44;99845.91;4205396;34;34567;-82
2021/04/14 05:46:21;;;;;;;8.85;7.55;;;;;;;4.04;77.79;99844.44;4194933;34;34862;-95
2021/04/14 05:48:54;;;;;;;6.87;5.85;;;;;;;4.52;76.21;99841.75;4195664;34;34346;-92
2021/04/14 05:51:35;;;;;;;7.05;6.20;;;;;;;4.36;76.22;99848.56;4200532;34;34667;-82
2021/04/14 05:54:07;;;;;;;8.77;6.57;;;;;;;4.35;76.89;99852.22;4188661;34;97581;-85
2021/04/14 05:56:45;;;;;;;7.47;6.20;;;;;;;4.50;75.93;99844.59;4201631;34;33720;-82
2021/04/14 05:59:18;;;;;;;8.02;6.53;;;;;;;4.19;76.93;99843.97;4195937;34;33659;-82
2021/04/14 06:01:54;;;;;;;7.37;6.20;;;;;;;4.09;77.62;99840.44;4194807;34;32885;-91
2021/04/14 06:04:40;;;;;;;7.07;6.00;;;;;;;4.15;77.78;99840.75;4203476;34;34896;-92
2021/04/14 06:07:13;;;;;;;6.37;5.78;;;;;;;4.27;76.70;99852.12;4199221;34;33455;-94
2021/04/14 06:09:47;;;;;;;10.48;6.32;;;;;;;4.23;77.48;99843.53;4199728;34;33619;-94
2021/04/14 06:12:19;;;;;;;8.05;6.03;;;;;;;4.31;77.39;99845.50;4192715;34;35131;-82
2021/04/14 06:14:52;;;;;;;8.10;6.18;;;;;;;4.60;75.90;99850.75;4186388;34;34630;-82
2021/04/14 06:17:24;;;;;;;6.57;5.15;;;;;;;4.66;75.58;99851.19;4189863;34;33867;-94
2021/04/14 06:20:04;;;;;;;6.65;5.12;;;;;;;4.41;75.98;99850.81;4193011;34;33748;-82
2021/04/14 06:22:36;;;;;;;7.78;5.62;;;;;;;4.42;75.74;99860.53;4192085;34;35013;-96
2021/04/14 06:25:16;;;;;;;6.72;5.12;;;;;;;4.23;76.81;99859.59;4191984;34;34607;-90
2021/04/14 06:30:32;;;;;;;6.80;5.60;;;;;;;4.03;78.31;99856.09;4204069;34;33556;-96
2021/04/14 06:33:09;;;;;;;9.45;6.15;;;;;;;4.51;76.56;99850.81;4233391;28;34239;-82
2021/04/14 06:35:42;;;;;;;6.37;5.40;;;;;;;4.72;75.42;99861.31;4204639;33;33632;-94
2021/04/14 06:38:30;;;;;;;5.80;5.18;;;;;;;4.82;75.24;99869.28;4180338;34;33789;-94
2021/04/14 06:44:53;;;;;;;5.75;4.78;;;;;;;5.04;73.89;99874.25;4173276;34;33751;-92
2021/04/14 06:48:18;;;;;;;6.85;5.65;;;;;;;5.23;73.08;99861.75;4188237;33;34596;-83
2021/04/14 06:51:20;;;;;;;6.75;5.22;;;;;;;4.95;75.04;99888.53;4195036;34;33160;-95
2021/04/14 06:53:56;;;;;;;5.22;4.68;;;;;;;5.01;74.62;99887.13;4207843;34;33905;-93
2021/04/14 06:56:28;;;;;;;6.15;4.93;;;;;;;5.28;73.65;99881.78;4199456;34;35702;-82
2021/04/14 06:59:03;;;;;;;9.00;5.55;;;;;;;5.10;73.45;99884.41;4188774;34;34125;-82
2021/04/14 07:01:42;;;;;;;5.47;4.00;;;;;;;4.99;74.11;99881.91;4199429;34;33142;-91
2021/04/14 07:04:18;;;;;;;6.57;4.00;;;;;;;5.23;72.35;99877.84;4194386;34;36508;-83
2021/04/14 07:06:53;;;;;;;6.60;4.90;;;;;;;4.99;73.28;99892.63;4191728;34;35449;-96
2021/04/14 07:09:49;;;;;;;5.45;4.18;;;;;;;5.19;74.24;99892.53;4181675;34;33613;-83
2021/04/14 07:12:23;;;;;;;6.30;4.90;;;;;;;5.01;73.15;99887.94;4181663;34;33953;-84
2021/04/14 07:14:58;;;;;;;5.97;4.80;;;;;;;5.16;74.52;99899.00;4168736;34;33571;-95
2021/04/14 07:17:59;;;;;;;6.47;4.12;;;;;;;5.58;73.10;99893.13;4185162;34;33654;-84
2021/04/14 07:20:37;;;;;;;6.60;4.15;;;;;;;5.61;73.07;99900.03;4179738;34;33463;-96
2021/04/14 07:23:26;;;;;;;5.10;4.07;;;;;;;5.74;71.29;99900.50;4184036;34;32883;-96
2021/04/14 07:26:20;;;;;;;5.10;4.22;;;;;;;5.63;72.64;99898.91;4177810;34;33631;-96
2021/04/14 07:29:30;;;;;;;4.75;4.20;;;;;;;5.47;74.43;99901.41;4187345;34;33720;-85
2021/04/14 07:32:33;;;;;;;5.75;4.30;;;;;;;5.77;73.40;99905.56;4170380;34;33371;-96
2021/04/14 07:35:12;;;;;;;5.12;4.10;;;;;;;6.07;70.37;99906.22;4179575;34;33000;-83
2021/04/14 07:37:51;;;;;;;4.75;3.87;;;;;;;6.21;70.35;99909.34;4196779;34;34532;-95
2021/04/14 07:40:39;;;;;;;6.65;3.90;;;;;;;5.92;71.31;99913.09;4178742;34;34434;-96
2021/04/14 07:43:22;;;;;;;4.97;4.10;;;;;;;5.86;71.80;99916.38;4166423;34;34070;-84
2021/04/14 07:45:55;;;;;;;5.20;3.78;;;;;;;5.91;71.36;99908.72;4166118;34;33673;-85
2021/04/14 07:48:29;;;;;;;4.55;3.65;;;;;;;6.21;70.80;99920.09;4182657;34;34559;-96
2021/04/14 07:51:03;;;;;;;5.00;3.75;;;;;;;6.20;70.36;99911.19;4181067;34;33430;-83
2021/04/14 07:53:39;;;;;;;4.68;3.85;;;;;;;6.24;70.20;99909.87;4165212;34;34837;-96
2021/04/14 07:56:20;;;;;;;4.12;2.87;;;;;;;6.18;70.16;99906.00;4169002;34;34232;-96
2021/04/14 07:58:59;;;;;;;6.43;3.90;;;;;;;6.22;70.00;99917.25;4183727;34;33772;-96
2021/04/14 08:01:34;;;;;;;5.28;3.70;;;;;;;6.03;71.02;99917.41;4178602;34;35199;-83
2021/04/14 08:04:11;;;;;;;5.80;3.37;;;;;;;6.06;71.79;99909.06;4176667;34;33589;-96
2021/04/14 08:06:43;;;;;;;4.62;3.22;;;;;;;6.43;69.76;99903.47;4181665;34;33093;-83
2021/04/14 08:09:21;;;;;;;4.15;3.37;;;;;;;6.16;69.05;99907.13;4169285;34;32730;-95
2021/04/14 08:11:57;;;;;;;3.40;2.90;;;;;;;6.30;69.08;99908.41;4181935;34;35351;-96
2021/04/14 08:14:35;;;;;;;3.92;2.90;;;;;;;6.38;68.93;99900.44;4170424;34;34996;-95
2021/04/14 08:17:27;;;;;;;3.05;2.75;;;;;;;6.60;69.53;99903.59;4168652;34;34485;-89
2021/04/14 08:20:05;;;;;;;4.10;2.97;;;;;;;6.74;69.66;99911.09;4181187;34;33463;-84
2021/04/14 08:22:37;;;;;;;4.30;2.62;;;;;;;6.79;68.50;99906.06;4180501;34;34917;-85
2021/04/14 08:25:33;;;;;;;2.53;2.33;;;;;;;6.84;68.12;99900.22;4182958;34;33900;-95
2021/04/14 08:28:09;;;;;;;2.78;2.55;;;;;;;6.91;69.46;99916.56;4182213;34;31877;-96
2021/04/14 08:31:38;;;;;;;3.58;2.62;;;;;;;6.85;68.65;99913.47;4192877;34;33837;-96
2021/04/14 08:34:18;;;;;;;3.65;2.87;;;;;;;6.80;67.52;99920.34;4166683;34;33578;-96
2021/04/14 08:37:19;;;;;;;5.05;3.65;;;;;;;6.89;68.18;99919.41;4158973;34;36506;-84
2021/04/14 08:40:26;;;;;;;2.70;2.35;;;;;;;6.73;68.53;99920.13;4169385;34;32590;-96
2021/04/14 08:43:11;;;;;;;3.92;2.95;;;;;;;6.80;66.68;99921.19;4178619;34;34291;-87
2021/04/14 08:45:46;;;;;;;3.85;2.62;;;;;;;6.49;70.13;99927.00;4179628;34;33002;-96
2021/04/14 08:48:27;;;;;;;3.42;2.40;;;;;;;7.10;66.98;99921.69;4169725;34;34599;-85
2021/04/14 08:51:04;;;;;;;2.97;2.47;;;;;;;7.10;67.00;99929.75;4172562;34;32859;-84
2021/04/14 08:53:40;;;;;;;2.95;2.25;;;;;;;7.12;66.78;99918.84;4171287;34;33562;-84
2021/04/14 08:56:12;;;;;;;2.50;2.30;;;;;;;7.19;66.24;99914.50;4160652;34;34450;-84
2021/04/14 08:58:58;;;;;;;4.47;2.67;;;;;;;6.93;67.18;99925.28;4171995;34;32763;-96
2021/04/14 09:01:31;;;;;;;2.85;2.28;;;;;;;7.17;68.28;99916.50;4172784;34;33705;-84
2021/04/14 09:04:10;;;;;;;3.00;2.42;;;;;;;7.51;64.35;99905.69;4173110;34;33389;-91
2021/04/14 09:06:46;;;;;;;3.95;2.55;;;;;;;7.37;65.18;99907.19;4174415;34;34746;-83
2021/04/14 09:09:21;;;;;;;3.85;2.83;;;;;;;7.21;65.07;99913.31;4166765;34;34568;-85
2021/04/14 09:12:02;;;;;;;4.57;2.70;;;;;;;7.52;65.25;99907.41;4172758;34;34023;-83
2021/04/14 09:14:36;;;;;;;2.75;2.12;;;;;;;7.65;65.71;99906.06;4171507;34;34803;-92
2021/04/14 09:17:19;;;;;;;4.15;2.60;;;;;;;7.68;65.34;99905.75;4171883;34;33757;-91
2021/04/14 09:19:54;;;;;;;2.67;1.90;;;;;;;7.76;65.27;99909.31;4173303;34;33507;-92
2021/04/14 09:22:28;;;;;;;2.95;2.17;;;;;;;7.61;64.31;99913.66;4173463;34;32849;-83
2021/04/14 09:25:03;;;;;;;2.70;1.80;;;;;;;8.10;63.69;99913.72;4169831;34;34986;-96
2021/04/14 09:27:35;;;;;;;3.05;2.30;;;;;;;7.74;63.67;99919.41;4162952;34;33463;-96
2021/04/14 09:30:59;;;;;;;3.50;2.65;;;;;;;7.79;63.17;99921.59;4159968;34;34028;-95
2021/04/14 09:33:45;;;;;;;4.50;2.47;;;;;;;7.82;64.63;99910.50;4182295;34;35648;-96
2021/04/14 09:37:05;;;;;;;2.42;2.12;;;;;;;8.02;64.61;99907.50;4164955;34;35780;-95
2021/04/14 09:40:00;;;;;;;4.22;2.75;;;;;;;8.06;63.34;99906.16;4191158;34;34387;-95
2021/04/14 09:42:44;;;;;;;3.20;1.98;;;;;;;7.88;62.95;99914.38;4201328;34;33794;-84
2021/04/14 09:45:25;;;;;;;3.12;2.45;;;;;;;7.77;63.19;99907.47;4181613;34;33616;-93
2021/04/14 09:48:01;;;;;;;2.87;2.20;;;;;;;7.69;64.94;99904.75;4200022;34;34279;-84
2021/04/14 09:50:39;;;;;;;18.20;6.70;;;;;;;7.95;63.54;99908.16;4192446;34;34332;-91
2021/04/14 09:53:27;;;;;;;3.12;2.33;;;;;;;8.16;64.42;99906.84;4186824;34;34357;-83
2021/04/14 09:56:08;;;;;;;4.55;2.60;;;;;;;8.57;60.25;99900.63;4188143;34;31826;-83
2021/04/14 09:58:49;;;;;;;3.58;2.47;;;;;;;8.29;61.70;99901.78;4188149;34;35899;-87
2021/04/14 10:01:30;;;;;;;2.97;2.50;;;;;;;8.29;62.61;99896.41;4175920;34;35576;-84
2021/04/14 10:04:09;;;;;;;3.00;2.12;;;;;;;8.48;62.92;99899.78;4186790;34;34575;-91
2021/04/14 10:06:42;;;;;;;3.80;2.97;;;;;;;8.33;63.74;99896.06;4201413;34;33758;-87
2021/04/14 10:09:38;;;;;;;3.20;2.90;;;;;;;8.80;62.58;99900.72;4187330;34;34232;-85
2021/04/14 10:12:19;;;;;;;3.20;2.40;;;;;;;9.15;60.66;99890.53;4200658;34;33670;-90
2021/04/14 10:14:56;;;;;;;2.75;2.47;;;;;;;8.74;61.46;99896.03;4190298;34;35467;-83
2021/04/14 10:17:30;;;;;;;4.03;2.92;;;;;;;8.84;59.37;99888.59;4187630;34;32108;-83
2021/04/14 10:20:25;;;;;;;3.37;2.45;;;;;;;8.99;59.69;99888.72;4196381;34;33616;-84
2021/04/14 10:22:57;;;;;;;5.85;2.90;;;;;;;8.98;60.63;99890.59;4188089;34;34642;-83
2021/04/14 10:25:32;;;;;;;3.22;2.92;;;;;;;8.88;61.29;99889.09;4181094;34;33891;-84
2021/04/14 10:28:08;;;;;;;3.33;2.12;;;;;;;9.28;59.75;99880.03;4201207;34;34428;-96
2021/04/14 10:30:44;;;;;;;6.28;2.90;;;;;;;9.45;59.72;99888.03;4182939;34;34342;-95
2021/04/14 10:33:22;;;;;;;3.20;2.42;;;;;;;9.49;60.04;99892.03;4177843;34;34604;-92
2021/04/14 10:36:09;;;;;;;3.33;2.40;;;;;;;9.81;57.82;99887.50;4190478;34;33862;-93
2021/04/14 10:38:43;;;;;;;3.37;2.90;;;;;;;9.49;58.31;99881.25;4189341;34;33964;-94
2021/04/14 10:41:22;;;;;;;4.43;3.10;;;;;;;9.47;60.16;99886.00;4190260;34;34643;-95
2021/04/14 10:43:55;;;;;;;8.27;3.42;;;;;;;9.72;59.28;99884.84;4186061;34;32722;-95
2021/04/14 10:46:35;;;;;;;5.45;3.53;;;;;;;10.11;57.39;99879.53;4213563;28;34632;-83
2021/04/14 10:49:11;;;;;;;5.72;3.83;;;;;;;9.88;57.49;99880.38;4211256;33;33808;-84
2021/04/14 10:52:08;;;;;;;3.08;2.35;;;;;;;9.69;57.93;99877.09;4215053;34;33665;-91
2021/04/14 10:54:48;;;;;;;5.03;2.70;;;;;;;9.58;57.16;99868.56;4195593;34;33750;-85
2021/04/14 10:57:30;;;;;;;6.55;2.80;;;;;;;9.43;58.16;99871.19;4205458;34;33179;-82
2021/04/14 11:00:20;;;;;;;4.62;3.47;;;;;;;9.60;55.78;99872.78;4200235;34;34268;-84
2021/04/14 11:02:52;;;;;;;8.73;3.70;;;;;;;9.81;56.81;99871.31;4205087;34;34561;-83
2021/04/14 11:05:24;;;;;;;9.98;4.43;;;;;;;9.95;56.10;99865.09;4203853;34;34709;-81
2021/04/14 11:07:57;;;;;;;8.57;3.72;;;;;;;10.19;55.20;99872.16;4205885;34;34299;-84
2021/04/14 11:10:34;;;;;;;6.07;3.47;;;;;;;9.83;58.79;99864.69;4217145;33;33695;-81
2021/04/14 11:13:15;;;;;;;4.93;2.30;;;;;;;9.97;54.17;99871.19;4217691;34;33573;-86
2021/04/14 11:15:54;;;;;;;3.25;2.40;;;;;;;9.22;57.20;99869.94;4219376;34;33502;-94
2021/04/14 11:18:41;;;;;;;4.32;2.83;;;;;;;9.14;58.53;99872.66;4196079;34;34497;-90
2021/04/14 11:21:34;;;;;;;3.47;1.98;;;;;;;9.54;55.86;99862.69;4195001;34;33462;-84
2021/04/14 11:24:19;;;;;;;3.15;2.35;;;;;;;9.43;54.53;99865.78;4195526;34;34254;-86
2021/04/14 11:27:02;;;;;;;3.37;2.12;;;;;;;9.82;57.77;99862.16;4210340;33;34400;-88
2021/04/14 11:29:39;;;;;;;4.68;2.30;;;;;;;10.07;54.21;99863.69;4221842;33;33845;-96
2021/04/14 11:32:17;;;;;;;2.95;1.75;;;;;;;9.59;54.24;99871.09;4249792;28;33399;-96
2021/04/14 11:35:06;;;;;;;3.75;1.62;;;;;;;9.45;53.69;99863.75;4199601;34;35645;-91
2021/04/14 11:39:08;;;;;;;7.18;1.70;;;;;;;9.40;51.62;99864.28;4187589;28;20111;-95
2021/04/14 11:42:12;;;;;;;2.55;1.77;;;;;;;9.29;53.19;99868.19;4134094;34;34282;-96
2021/04/14 11:44:55;;;;;;;3.03;1.67;;;;;;;9.40;51.76;99866.13;4138438;34;33942;-96
2021/04/14 11:48:07;;;;;;;2.50;1.80;;;;;;;9.27;51.59;99867.56;4217597;28;35047;-94
2021/04/14 11:50:48;;;;;;;3.37;1.98;;;;;;;9.54;52.41;99868.09;4207904;33;34226;-91
2021/04/14 11:53:49;;;;;;;3.87;1.45;;;;;;;9.41;50.90;99871.34;4206186;33;33621;-96
2021/04/14 11:57:11;;;;;;;3.83;1.98;;;;;;;9.22;53.04;99872.66;4324568;28;34621;-93
2021/04/14 11:59:46;;;;;;;3.08;1.62;;;;;;;9.47;51.21;99867.12;4236734;33;34592;-93
2021/04/14 12:02:30;;;;;;;3.65;1.65;;;;;;;9.62;50.26;99873.41;4209379;34;32896;-96
2021/04/14 12:05:06;;;;;;;1.83;1.60;;;;;;;9.56;49.37;99871.44;4228937;28;34651;-93
2021/04/14 12:07:43;;;;;;;2.37;1.90;;;;;;;9.57;49.55;99872.31;4212453;33;33149;-96
2021/04/14 12:10:18;;;;;;;1.95;1.50;;;;;;;9.49;52.24;99865.06;4190601;34;33457;-94
2021/04/14 12:12:50;;;;;;;1.90;1.55;;;;;;;9.48;48.62;99866.09;4246137;28;34983;-94
2021/04/14 12:15:23;;;;;;;2.72;1.60;;;;;;;9.36;50.29;99863.78;4201010;34;33686;-92
2021/04/14 12:17:56;;;;;;;2.97;1.52;;;;;;;9.50;48.27;99872.97;4198438;33;33154;-93
2021/04/14 12:20:40;;;;;;;3.42;1.55;;;;;;;9.56;48.13;99866.03;4198071;33;34961;-94
2021/04/14 12:23:18;;;;;;;1.95;1.73;;;;;;;9.67;47.60;99871.03;4242376;28;35139;-96
2021/04/14 12:25:50;;;;;;;2.05;1.42;;;;;;;9.53;48.74;99861.00;4274022;28;33876;-93
2021/04/14 12:28:41;;;;;;;2.40;1.95;;;;;;;9.74;45.83;99868.47;4197462;34;32909;-96
2021/04/14 12:34:50;;;;;;;2.40;1.90;;;;;;;9.85;48.87;99851.00;4232340;28;33454;-93
2021/04/14 12:37:23;;;;;;;4.30;1.83;;;;;;;10.36;47.93;99859.41;4218514;34;33726;-96
2021/04/14 12:40:09;;;;;;;1.90;1.67;;;;;;;10.52;47.89;99860.25;4307406;28;33650;-96